createdAt,value
2017-09-19T00:00:22.905Z,81.50
2017-09-19T00:02:51.752Z,81.10
2017-09-19T00:05:20.594Z,81.20
2017-09-19T00:07:49.433Z,81.40
2017-09-19T00:10:17.581Z,81.50
2017-09-19T00:12:47.398Z,81.60
2017-09-19T00:15:16.377Z,81.70
2017-09-19T00:17:45.215Z,81.80
2017-09-19T00:20:14.749Z,81.80
2017-09-19T00:22:46.172Z,81.90
2017-09-19T00:25:15.018Z,81.90
2017-09-19T00:27:43.585Z,81.90
2017-09-19T00:30:12.161Z,81.70
2017-09-19T00:32:41.774Z,81.50
2017-09-19T00:35:10.615Z,81.50
2017-09-19T00:37:41.228Z,81.40
2017-09-19T00:40:10.069Z,81.40
2017-09-19T00:42:39.671Z,81.40
2017-09-19T00:45:09.304Z,81.50
2017-09-19T00:47:38.151Z,82.40
2017-09-19T00:50:07.000Z,81.40
2017-09-19T00:52:37.149Z,82.40
2017-09-19T00:55:06.071Z,82.40
2017-09-19T00:57:35.289Z,82.40
2017-09-19T01:00:04.207Z,82.50
2017-09-19T01:02:33.046Z,82.50
2017-09-19T01:05:01.979Z,82.70
2017-09-19T01:07:31.199Z,83.10
2017-09-19T01:10:00.096Z,83.00
2017-09-19T01:12:29.480Z,82.90
2017-09-19T01:14:58.325Z,83.40
2017-09-19T01:17:27.156Z,83.20
2017-09-19T01:19:55.989Z,83.10
2017-09-19T01:22:24.476Z,82.90
2017-09-19T01:24:53.776Z,82.70
2017-09-19T01:27:21.920Z,82.60
2017-09-19T01:29:51.097Z,82.60
2017-09-19T01:32:19.253Z,82.80
2017-09-19T01:34:49.720Z,82.70
2017-09-19T01:37:18.919Z,82.60
2017-09-19T01:39:47.527Z,82.40
2017-09-19T01:42:16.362Z,83.20
2017-09-19T01:44:46.236Z,83.40
2017-09-19T01:47:15.740Z,83.30
2017-09-19T01:49:44.591Z,83.20
2017-09-19T01:52:13.423Z,83.20
2017-09-19T01:54:42.268Z,83.60
2017-09-19T01:57:11.109Z,83.60
2017-09-19T01:59:40.522Z,83.30
2017-09-19T02:02:09.373Z,83.20
2017-09-19T02:04:39.392Z,83.40
2017-09-19T02:07:08.050Z,83.70
2017-09-19T02:09:36.916Z,83.70
2017-09-19T02:12:05.834Z,83.80
2017-09-19T02:14:34.684Z,83.80
2017-09-19T02:17:03.536Z,83.70
2017-09-19T02:19:32.383Z,83.50
2017-09-19T02:22:01.220Z,83.70
2017-09-19T02:24:30.067Z,83.90
2017-09-19T02:26:59.672Z,84.30
2017-09-19T02:29:29.302Z,84.50
2017-09-19T02:31:58.808Z,84.50
2017-09-19T02:34:27.664Z,84.80
2017-09-19T02:36:56.520Z,85.00
2017-09-19T02:39:25.363Z,85.60
2017-09-19T02:41:54.979Z,85.60
2017-09-19T02:44:24.072Z,85.50
2017-09-19T02:46:53.675Z,85.80
2017-09-19T02:49:23.277Z,85.90
2017-09-19T02:51:52.892Z,86.40
2017-09-19T02:54:21.734Z,86.40
2017-09-19T02:56:50.572Z,86.20
2017-09-19T02:59:19.435Z,86.10
2017-09-19T03:01:48.276Z,86.00
2017-09-19T03:04:17.112Z,86.20
2017-09-19T03:06:45.663Z,86.20
2017-09-19T03:09:14.496Z,86.40
2017-09-19T03:11:44.060Z,86.50
2017-09-19T03:14:12.899Z,86.80
2017-09-19T03:16:41.740Z,87.10
2017-09-19T03:19:10.581Z,87.20
2017-09-19T03:21:39.423Z,86.90
2017-09-19T03:24:08.261Z,87.10
2017-09-19T03:26:37.110Z,86.90
2017-09-19T03:29:05.947Z,86.90
2017-09-19T03:31:34.791Z,87.00
2017-09-19T03:34:03.629Z,86.90
2017-09-19T03:36:33.433Z,87.70
2017-09-19T03:39:02.277Z,87.40
2017-09-19T03:41:31.118Z,87.50
2017-09-19T03:43:59.951Z,87.40
2017-09-19T03:46:29.396Z,87.20
2017-09-19T03:48:58.276Z,87.60
2017-09-19T03:51:27.136Z,87.70
2017-09-19T03:53:55.993Z,87.70
2017-09-19T03:56:24.839Z,88.00
2017-09-19T03:58:53.685Z,87.90
2017-09-19T04:01:24.268Z,88.20
2017-09-19T04:03:53.114Z,88.20
2017-09-19T04:06:22.604Z,87.90
2017-09-19T04:08:52.485Z,87.70
2017-09-19T04:11:21.325Z,87.60
2017-09-19T04:13:50.194Z,87.50
2017-09-19T04:16:20.900Z,87.80
2017-09-19T04:18:49.825Z,88.60
2017-09-19T04:21:18.978Z,87.80
2017-09-19T04:23:47.840Z,88.00
2017-09-19T04:26:17.359Z,88.10
2017-09-19T04:28:46.627Z,88.10
2017-09-19T04:31:16.328Z,88.20
2017-09-19T04:33:46.572Z,88.60
2017-09-19T04:36:16.034Z,88.10
2017-09-19T04:38:44.850Z,88.00
2017-09-19T04:41:13.696Z,87.90
2017-09-19T04:43:42.539Z,88.70
2017-09-19T04:46:12.537Z,88.30
2017-09-19T04:48:41.408Z,88.30
2017-09-19T04:51:10.289Z,88.60
2017-09-19T04:53:39.480Z,88.30
2017-09-19T04:56:08.328Z,88.40
2017-09-19T04:58:37.169Z,88.30
2017-09-19T05:01:06.011Z,88.30
2017-09-19T05:03:35.620Z,88.30
2017-09-19T05:06:05.284Z,88.30
2017-09-19T05:08:34.137Z,88.20
2017-09-19T05:11:02.980Z,88.30
2017-09-19T05:13:31.819Z,88.40
2017-09-19T05:16:01.656Z,88.10
2017-09-19T05:18:30.523Z,88.30
2017-09-19T05:20:59.368Z,88.40
2017-09-19T05:23:28.236Z,88.50
2017-09-19T05:25:57.555Z,88.70
2017-09-19T05:28:26.528Z,88.50
2017-09-19T05:30:56.352Z,88.40
2017-09-19T05:33:25.650Z,88.50
2017-09-19T05:35:55.364Z,88.30
2017-09-19T05:38:24.825Z,88.30
2017-09-19T05:40:53.333Z,88.40
2017-09-19T05:43:22.176Z,88.40
2017-09-19T05:45:51.032Z,88.50
2017-09-19T05:48:19.916Z,88.80
2017-09-19T05:50:51.105Z,88.80
2017-09-19T05:53:20.725Z,88.50
2017-09-19T05:55:50.457Z,88.60
2017-09-19T05:58:21.032Z,88.50
2017-09-19T06:00:49.996Z,88.60
2017-09-19T06:03:18.844Z,88.40
2017-09-19T06:05:48.474Z,88.00
2017-09-19T06:08:17.886Z,88.00
2017-09-19T06:10:46.717Z,88.00
2017-09-19T06:13:17.334Z,87.70
2017-09-19T06:15:46.988Z,87.60
2017-09-19T06:18:17.525Z,87.70
2017-09-19T06:20:47.173Z,87.80
2017-09-19T06:23:16.694Z,87.80
2017-09-19T06:25:45.761Z,87.60
2017-09-19T06:28:14.611Z,87.60
2017-09-19T06:30:43.480Z,87.60
2017-09-19T06:33:12.169Z,87.50
2017-09-19T06:35:41.018Z,87.40
2017-09-19T06:38:09.860Z,87.40
2017-09-19T06:40:39.146Z,87.40
2017-09-19T06:43:07.299Z,87.30
2017-09-19T06:45:36.921Z,86.60
2017-09-19T06:48:05.676Z,86.60
2017-09-19T06:50:34.528Z,86.30
2017-09-19T06:53:03.214Z,86.00
2017-09-19T06:55:32.071Z,85.80
2017-09-19T06:58:00.936Z,85.10
2017-09-19T07:00:30.059Z,85.10
2017-09-19T07:02:58.923Z,84.60
2017-09-19T07:05:27.793Z,84.20
2017-09-19T07:07:57.422Z,83.90
2017-09-19T07:10:26.316Z,83.90
2017-09-19T07:12:55.240Z,84.30
2017-09-19T07:15:24.109Z,84.10
2017-09-19T07:17:52.973Z,83.90
2017-09-19T07:20:22.597Z,83.80
2017-09-19T07:22:51.459Z,83.70
2017-09-19T07:25:20.308Z,82.40
2017-09-19T07:27:49.186Z,82.00
2017-09-19T07:30:18.045Z,81.70
2017-09-19T07:32:47.429Z,81.50
2017-09-19T07:35:16.275Z,81.50
2017-09-19T07:37:45.756Z,81.30
2017-09-19T07:40:14.637Z,80.90
2017-09-19T07:42:44.268Z,80.60
2017-09-19T07:45:13.112Z,80.60
2017-09-19T07:47:41.964Z,80.40
2017-09-19T07:50:10.828Z,80.10
2017-09-19T07:52:41.284Z,79.90
2017-09-19T07:55:10.371Z,79.70
2017-09-19T07:57:40.071Z,79.40
2017-09-19T08:00:08.739Z,79.40
2017-09-19T08:02:39.212Z,79.00
2017-09-19T08:05:08.100Z,79.00
2017-09-19T08:07:39.629Z,78.70
2017-09-19T08:10:08.475Z,78.40
2017-09-19T08:12:37.324Z,78.00
2017-09-19T08:15:06.171Z,77.50
2017-09-19T08:17:35.772Z,76.80
2017-09-19T08:20:04.267Z,76.40
2017-09-19T08:22:33.115Z,75.80
2017-09-19T08:25:01.780Z,75.80
2017-09-19T08:27:30.454Z,75.30
2017-09-19T08:30:00.826Z,73.90
2017-09-19T08:32:29.680Z,73.70
2017-09-19T08:34:58.526Z,73.50
2017-09-19T08:37:27.360Z,73.00
2017-09-19T08:39:56.232Z,72.50
2017-09-19T08:42:25.851Z,71.80
2017-09-19T08:44:55.460Z,71.50
2017-09-19T08:47:25.067Z,71.00
2017-09-19T08:49:53.925Z,71.00
2017-09-19T08:52:22.775Z,70.80
2017-09-19T08:54:51.620Z,70.30
2017-09-19T08:57:22.268Z,69.40
2017-09-19T08:59:51.129Z,69.30
2017-09-19T09:02:19.999Z,68.50
2017-09-19T09:04:49.425Z,68.80
2017-09-19T09:07:18.370Z,68.30
2017-09-19T09:09:47.216Z,67.90
2017-09-19T09:12:16.064Z,67.30
2017-09-19T09:14:44.927Z,67.10
2017-09-19T09:17:13.791Z,66.70
2017-09-19T09:19:43.419Z,66.30
2017-09-19T09:22:13.030Z,66.00
2017-09-19T09:24:41.888Z,65.90
2017-09-19T09:27:10.734Z,65.40
2017-09-19T09:29:40.527Z,64.70
2017-09-19T09:32:09.926Z,64.50
2017-09-19T09:34:39.497Z,63.60
2017-09-19T09:37:08.340Z,63.10
2017-09-19T09:39:37.233Z,63.00
2017-09-19T09:42:06.661Z,62.90
2017-09-19T09:44:36.196Z,62.30
2017-09-19T09:47:05.044Z,61.40
2017-09-19T09:49:34.563Z,61.10
2017-09-19T09:52:03.426Z,60.90
2017-09-19T09:54:32.310Z,60.40
2017-09-19T09:57:01.944Z,58.80
2017-09-19T09:59:30.795Z,58.80
2017-09-19T10:02:01.957Z,58.10
2017-09-19T10:04:32.640Z,58.10
2017-09-19T10:07:01.584Z,57.60
2017-09-19T10:09:31.379Z,57.10
2017-09-19T10:12:05.639Z,56.00
2017-09-19T10:14:35.852Z,55.90
2017-09-19T10:17:05.247Z,55.80
2017-09-19T10:19:34.089Z,56.10
2017-09-19T10:22:03.167Z,55.90
2017-09-19T10:24:32.014Z,55.30
2017-09-19T10:27:02.303Z,55.00
2017-09-19T10:29:31.872Z,54.70
2017-09-19T10:32:00.755Z,54.60
2017-09-19T10:34:29.607Z,54.70
2017-09-19T10:36:59.119Z,54.60
2017-09-19T10:39:29.772Z,54.40
2017-09-19T10:41:58.661Z,54.40
2017-09-19T10:44:28.314Z,53.80
2017-09-19T10:46:57.951Z,53.80
2017-09-19T10:49:26.791Z,53.80
2017-09-19T10:51:56.423Z,53.70
2017-09-19T10:54:25.270Z,53.90
2017-09-19T10:56:53.826Z,53.80
2017-09-19T10:59:23.451Z,54.20
2017-09-19T11:01:53.055Z,53.50
2017-09-19T11:04:22.831Z,53.50
2017-09-19T11:06:52.328Z,53.10
2017-09-19T11:09:21.178Z,52.50
2017-09-19T11:11:51.895Z,52.80
2017-09-19T11:16:56.608Z,52.50
2017-09-19T11:19:25.451Z,52.50
2017-09-19T11:21:54.297Z,52.20
2017-09-19T11:24:23.235Z,52.30
2017-09-19T11:26:52.953Z,51.80
2017-09-19T11:29:21.817Z,51.80
2017-09-19T11:31:52.307Z,51.80
2017-09-19T11:34:21.180Z,51.60
2017-09-19T11:36:50.029Z,52.10
2017-09-19T11:39:19.661Z,51.60
2017-09-19T11:41:48.499Z,51.40
2017-09-19T11:44:17.363Z,50.80
2017-09-19T11:46:46.230Z,50.70
2017-09-19T11:49:15.183Z,50.60
2017-09-19T11:51:44.320Z,50.50
2017-09-19T11:54:13.864Z,49.80
2017-09-19T11:56:42.739Z,49.70
2017-09-19T11:59:11.618Z,49.60
2017-09-19T12:01:41.635Z,49.70
2017-09-19T12:04:10.476Z,49.60
2017-09-19T12:06:40.237Z,49.50
2017-09-19T12:09:09.087Z,49.80
2017-09-19T12:11:37.940Z,49.70
2017-09-19T12:14:06.782Z,50.10
2017-09-19T12:16:36.310Z,49.70
2017-09-19T12:19:05.916Z,49.70
2017-09-19T12:21:36.185Z,49.80
2017-09-19T12:24:05.043Z,49.80
2017-09-19T12:26:33.898Z,49.50
2017-09-19T12:29:03.583Z,48.80
2017-09-19T12:31:32.276Z,49.30
2017-09-19T12:34:01.353Z,49.20
2017-09-19T12:36:30.752Z,49.30
2017-09-19T12:38:59.611Z,49.40
2017-09-19T12:41:28.552Z,49.20
2017-09-19T12:43:57.465Z,48.80
2017-09-19T12:46:26.320Z,48.40
2017-09-19T12:48:55.170Z,48.10
2017-09-19T12:51:24.417Z,48.20
2017-09-19T12:53:54.605Z,48.40
2017-09-19T12:56:23.548Z,48.40
2017-09-19T12:58:52.403Z,48.30
2017-09-19T13:01:22.597Z,47.80
2017-09-19T13:03:51.464Z,47.70
2017-09-19T13:06:22.211Z,47.80
2017-09-19T13:08:51.828Z,47.90
2017-09-19T13:11:21.456Z,48.30
2017-09-19T13:13:50.773Z,48.30
2017-09-19T13:16:20.419Z,48.30
2017-09-19T13:18:49.424Z,48.10
2017-09-19T13:21:18.282Z,47.80
2017-09-19T13:23:48.268Z,47.70
2017-09-19T13:26:17.121Z,47.80
2017-09-19T13:28:45.992Z,47.80
2017-09-19T13:31:26.011Z,47.60
2017-09-19T13:33:54.854Z,47.40
2017-09-19T13:36:24.246Z,47.20
2017-09-19T13:38:53.443Z,46.90
2017-09-19T13:41:22.999Z,47.00
2017-09-19T13:43:51.844Z,46.50
2017-09-19T13:46:20.504Z,45.60
2017-09-19T13:48:49.228Z,45.20
2017-09-19T13:51:17.951Z,44.50
2017-09-19T13:53:46.627Z,44.10
2017-09-19T13:56:16.247Z,43.70
2017-09-19T13:58:45.093Z,43.60
2017-09-19T14:01:13.958Z,43.50
2017-09-19T14:03:42.895Z,43.50
2017-09-19T14:06:11.556Z,43.40
2017-09-19T14:08:41.351Z,43.50
2017-09-19T14:11:13.081Z,42.70
2017-09-19T14:13:41.932Z,42.70
2017-09-19T14:16:10.795Z,42.40
2017-09-19T14:18:39.677Z,42.50
2017-09-19T14:21:08.535Z,42.30
2017-09-19T14:23:38.148Z,41.80
2017-09-19T14:26:07.923Z,41.70
2017-09-19T14:28:36.776Z,41.30
2017-09-19T14:31:05.642Z,40.80
2017-09-19T14:33:35.279Z,40.40
2017-09-19T14:36:04.143Z,40.50
2017-09-19T14:38:32.991Z,40.30
2017-09-19T14:41:01.840Z,40.00
2017-09-19T14:43:31.664Z,40.20
2017-09-19T14:46:00.579Z,40.60
2017-09-19T14:48:29.432Z,40.60
2017-09-19T14:50:58.277Z,40.30
2017-09-19T14:53:27.139Z,40.60
2017-09-19T14:55:56.528Z,40.70
2017-09-19T14:58:28.410Z,41.10
2017-09-19T15:00:57.264Z,41.50
2017-09-19T15:03:26.130Z,42.30
2017-09-19T15:05:55.759Z,43.50
2017-09-19T15:08:24.615Z,43.40
2017-09-19T15:10:53.460Z,43.20
2017-09-19T15:13:22.304Z,43.10
2017-09-19T15:15:51.156Z,43.20
2017-09-19T15:18:20.323Z,43.40
2017-09-19T15:20:49.173Z,43.30
2017-09-19T15:23:18.016Z,43.50
2017-09-19T15:25:48.872Z,42.80
2017-09-19T15:28:17.741Z,42.50
2017-09-19T15:30:46.600Z,43.00
2017-09-19T15:35:48.824Z,43.80
2017-09-19T15:38:18.976Z,43.80
2017-09-19T15:40:48.336Z,44.10
2017-09-19T15:43:17.205Z,44.40
2017-09-19T15:45:46.528Z,43.90
2017-09-19T15:48:15.415Z,43.70
2017-09-19T15:50:44.224Z,43.70
2017-09-19T15:53:13.084Z,43.70
2017-09-19T15:55:42.707Z,43.90
2017-09-19T15:58:12.522Z,43.80
2017-09-19T17:37:40.574Z,43.30
2017-09-19T17:40:10.181Z,53.80
2017-09-19T17:42:43.072Z,53.70
2017-09-19T17:45:13.940Z,54.40
2017-09-19T17:47:43.468Z,54.80
2017-09-19T17:50:12.323Z,55.20
2017-09-19T17:52:41.169Z,55.40
2017-09-19T17:55:11.016Z,55.80
2017-09-19T17:57:40.237Z,56.30
2017-09-19T18:00:11.351Z,56.60
2017-09-19T18:05:20.828Z,58.30
2017-09-19T18:07:51.866Z,58.20
2017-09-19T18:10:22.696Z,58.70
2017-09-19T18:12:52.365Z,59.00
2017-09-19T18:18:01.100Z,59.20
2017-09-19T18:20:43.281Z,59.20
2017-09-19T18:23:14.042Z,59.40
2017-09-19T18:28:38.992Z,60.00
2017-09-19T18:44:05.213Z,60.80
2017-09-19T18:46:34.098Z,61.10
2017-09-19T18:51:45.709Z,62.10
2017-09-19T18:56:54.095Z,63.30
2017-09-19T18:59:23.438Z,63.80
2017-09-19T19:01:53.061Z,63.70
2017-09-19T19:04:22.497Z,63.70
2017-09-19T19:06:51.377Z,63.80
2017-09-19T19:09:20.229Z,63.80
2017-09-19T19:11:49.902Z,64.00
2017-09-19T19:14:18.765Z,64.00
2017-09-19T19:16:49.011Z,64.20
2017-09-19T19:19:17.933Z,64.40
2017-09-19T19:21:46.808Z,64.60
2017-09-19T19:24:20.829Z,65.00
2017-09-19T19:26:49.707Z,65.20
2017-09-19T19:29:18.636Z,65.30
2017-09-19T19:31:48.263Z,66.10
2017-09-19T19:34:20.038Z,66.00
2017-09-19T19:36:49.540Z,66.00
2017-09-19T19:39:18.212Z,66.50
2017-09-19T19:41:47.639Z,66.80
2017-09-19T19:57:00.302Z,66.70
2017-09-19T19:59:29.915Z,67.40
2017-09-19T20:02:04.352Z,67.60
2017-09-19T20:21:16.154Z,71.30
2017-09-19T20:23:48.453Z,68.80
2017-09-19T20:31:34.261Z,69.80
2017-09-19T20:34:09.208Z,69.70
2017-09-19T20:39:33.480Z,70.60
2017-09-19T20:47:26.732Z,71.10
2017-09-19T20:52:42.881Z,71.40
2017-09-19T20:55:13.585Z,71.80
2017-09-19T20:57:44.516Z,71.70
2017-09-19T21:00:13.521Z,71.70
2017-09-19T21:08:08.476Z,71.50
2017-09-19T21:10:43.080Z,71.80
2017-09-19T21:13:17.597Z,71.80
2017-09-19T21:18:36.112Z,72.50
2017-09-19T21:21:04.777Z,72.70
2017-09-19T21:23:33.644Z,72.80
2017-09-19T21:26:02.523Z,72.90
2017-09-19T21:28:31.388Z,72.90
2017-09-19T21:31:01.015Z,73.10
2017-09-19T21:33:29.754Z,73.00
2017-09-19T21:35:58.902Z,73.00
2017-09-19T21:38:27.756Z,73.30
2017-09-19T21:40:56.628Z,73.50
2017-09-19T21:43:25.491Z,73.40
2017-09-19T21:45:55.132Z,73.40
2017-09-19T21:48:23.980Z,73.50
2017-09-19T21:50:52.837Z,73.80
2017-09-19T21:53:22.464Z,74.00
2017-09-19T21:55:51.357Z,74.00
2017-09-19T21:58:20.920Z,74.30
2017-09-19T22:00:49.783Z,74.30
2017-09-19T22:03:19.659Z,74.60
2017-09-19T22:05:48.405Z,74.80
2017-09-19T22:08:17.276Z,75.00
2017-09-19T22:10:46.151Z,75.00
2017-09-19T22:13:15.024Z,75.20
2017-09-19T22:15:45.185Z,75.40
2017-09-19T22:18:14.055Z,75.40
2017-09-19T22:20:42.928Z,75.40
2017-09-19T22:23:11.787Z,75.70
2017-09-19T22:25:41.448Z,75.70
2017-09-19T22:28:10.325Z,75.70
2017-09-19T22:30:39.175Z,75.80
2017-09-19T22:33:08.029Z,75.90
2017-09-19T22:35:38.057Z,76.00
2017-09-19T22:38:06.935Z,76.00
2017-09-19T22:40:35.808Z,76.10
2017-09-19T22:43:04.663Z,76.10
2017-09-19T22:45:33.522Z,76.20
2017-09-19T22:48:02.484Z,76.10
2017-09-19T22:50:31.350Z,76.20
2017-09-19T22:53:00.192Z,76.10
2017-09-19T22:55:29.066Z,76.80
2017-09-19T22:57:57.947Z,76.40
2017-09-19T23:00:26.800Z,76.70
2017-09-19T23:02:55.691Z,76.70
2017-09-19T23:05:24.543Z,77.50
2017-09-19T23:07:53.395Z,76.90
2017-09-19T23:10:23.014Z,77.10
2017-09-19T23:12:51.877Z,77.00
2017-09-19T23:15:20.753Z,77.00
2017-09-19T23:17:50.603Z,77.00
2017-09-19T23:20:20.227Z,76.80
2017-09-19T23:22:49.991Z,77.40
2017-09-19T23:25:18.835Z,76.90
2017-09-19T23:27:48.612Z,77.10
2017-09-19T23:30:17.448Z,77.00
2017-09-19T23:32:46.106Z,76.90
2017-09-19T23:35:15.229Z,77.10
2017-09-19T23:37:43.900Z,77.10
2017-09-19T23:40:12.573Z,77.30
2017-09-19T23:42:42.003Z,77.20
2017-09-19T23:45:10.857Z,77.20
2017-09-19T23:47:40.485Z,77.30
2017-09-19T23:50:10.089Z,77.40
2017-09-19T23:52:38.946Z,77.40
2017-09-19T23:55:07.812Z,77.50
2017-09-19T23:57:36.672Z,77.50
